createdAt,value
2019-03-25T00:00:00.014Z,5.00
2019-03-25T00:02:30.980Z,5.10
2019-03-25T00:05:01.797Z,5.20
2019-03-25T00:07:32.696Z,5.30
2019-03-25T00:10:03.676Z,5.30
2019-03-25T00:12:34.560Z,5.30
2019-03-25T00:15:05.576Z,5.30
2019-03-25T00:17:37.645Z,5.30
2019-03-25T00:20:09.177Z,5.30
2019-03-25T00:22:40.060Z,5.20
2019-03-25T00:25:11.303Z,5.20
2019-03-25T00:27:42.111Z,5.10
2019-03-25T00:30:13.158Z,5.10
2019-03-25T00:32:44.121Z,5.10
2019-03-25T00:35:14.980Z,5.00
2019-03-25T00:37:45.864Z,4.90
2019-03-25T00:40:16.792Z,4.90
2019-03-25T00:42:47.681Z,4.90
2019-03-25T00:45:18.557Z,5.00
2019-03-25T00:47:49.512Z,5.00
2019-03-25T00:50:20.380Z,5.10
2019-03-25T00:52:51.189Z,5.20
2019-03-25T00:55:22.177Z,5.40
2019-03-25T00:57:53.040Z,5.40
2019-03-25T01:00:24.017Z,5.60
2019-03-25T01:02:54.856Z,5.70
2019-03-25T01:05:25.749Z,5.80
2019-03-25T01:07:56.510Z,5.80
2019-03-25T01:10:27.878Z,5.90
2019-03-25T01:12:58.680Z,5.90
2019-03-25T01:15:29.476Z,5.90
2019-03-25T01:18:00.277Z,5.90
2019-03-25T01:20:31.153Z,5.90
2019-03-25T01:23:02.016Z,6.00
2019-03-25T01:25:32.820Z,6.00
2019-03-25T01:28:03.734Z,6.00
2019-03-25T01:30:34.773Z,6.00
2019-03-25T01:33:05.718Z,6.00
2019-03-25T01:35:36.620Z,6.00
2019-03-25T01:38:07.554Z,6.10
2019-03-25T01:40:38.424Z,6.00
2019-03-25T01:43:09.237Z,6.10
2019-03-25T01:45:40.025Z,6.10
2019-03-25T01:48:10.829Z,6.10
2019-03-25T01:50:41.772Z,6.20
2019-03-25T01:53:12.780Z,6.10
2019-03-25T01:55:44.616Z,6.10
2019-03-25T01:58:15.520Z,6.20
2019-03-25T02:00:46.433Z,6.20
2019-03-25T02:03:17.318Z,6.20
2019-03-25T02:05:48.117Z,6.10
2019-03-25T02:08:19.029Z,6.20
2019-03-25T02:10:49.853Z,6.20
2019-03-25T02:13:20.660Z,6.20
2019-03-25T02:15:51.500Z,6.20
2019-03-25T02:18:23.293Z,6.30
2019-03-25T02:20:54.277Z,6.20
2019-03-25T02:23:25.192Z,6.20
2019-03-25T02:25:56.021Z,6.20
2019-03-25T02:28:26.841Z,6.20
2019-03-25T02:30:58.691Z,6.20
2019-03-25T02:33:29.648Z,6.20
2019-03-25T02:36:00.502Z,6.30
2019-03-25T02:38:31.306Z,6.30
2019-03-25T02:41:02.114Z,6.30
2019-03-25T02:43:33.053Z,6.30
2019-03-25T02:46:04.071Z,6.40
2019-03-25T02:48:34.865Z,6.30
2019-03-25T02:51:05.645Z,6.30
2019-03-25T02:53:36.583Z,6.30
2019-03-25T02:56:07.677Z,6.40
2019-03-25T02:58:38.546Z,6.40
2019-03-25T03:01:10.389Z,6.40
2019-03-25T03:03:41.254Z,6.40
2019-03-25T03:06:12.132Z,6.50
2019-03-25T03:08:42.925Z,6.60
2019-03-25T03:11:13.794Z,6.60
2019-03-25T03:13:44.589Z,6.70
2019-03-25T03:16:15.534Z,6.70
2019-03-25T03:18:46.605Z,6.70
2019-03-25T03:21:17.400Z,6.60
2019-03-25T03:23:48.181Z,6.60
2019-03-25T03:26:18.973Z,6.60
2019-03-25T03:28:49.841Z,6.70
2019-03-25T03:31:20.742Z,6.60
2019-03-25T03:33:51.525Z,6.60
2019-03-25T03:36:22.346Z,6.60
2019-03-25T03:38:53.125Z,6.60
2019-03-25T03:41:23.917Z,6.60
2019-03-25T03:43:54.779Z,6.50
2019-03-25T03:46:25.594Z,6.50
2019-03-25T03:48:56.477Z,6.50
2019-03-25T03:51:27.429Z,6.60
2019-03-25T03:53:58.493Z,6.50
2019-03-25T03:56:30.855Z,6.50
2019-03-25T03:59:03.783Z,6.40
2019-03-25T04:01:46.694Z,6.50
2019-03-25T04:04:17.514Z,6.50
2019-03-25T04:06:48.468Z,6.50
2019-03-25T04:09:19.333Z,6.40
2019-03-25T04:11:50.289Z,6.40
2019-03-25T04:14:21.409Z,6.40
2019-03-25T04:16:52.222Z,6.40
2019-03-25T04:19:22.998Z,6.30
2019-03-25T04:21:53.790Z,6.30
2019-03-25T04:24:24.667Z,6.30
2019-03-25T04:26:55.481Z,6.20
2019-03-25T04:29:26.263Z,6.20
2019-03-25T04:31:57.086Z,6.20
2019-03-25T04:34:27.871Z,6.20
2019-03-25T04:36:58.731Z,6.20
2019-03-25T04:39:29.803Z,6.10
2019-03-25T04:42:00.715Z,6.10
2019-03-25T04:44:31.597Z,6.00
2019-03-25T04:47:02.496Z,6.00
2019-03-25T04:49:33.282Z,6.00
2019-03-25T04:52:04.177Z,6.00
2019-03-25T04:54:34.993Z,6.00
2019-03-25T04:57:05.830Z,6.10
2019-03-25T04:59:37.605Z,6.10
2019-03-25T05:02:08.412Z,6.10
2019-03-25T05:04:39.210Z,6.10
2019-03-25T05:07:09.997Z,6.10
2019-03-25T05:09:40.794Z,6.10
2019-03-25T05:12:11.703Z,6.10
2019-03-25T05:14:42.558Z,6.20
2019-03-25T05:17:13.383Z,6.20
2019-03-25T05:19:44.158Z,6.20
2019-03-25T05:22:14.949Z,6.20
2019-03-25T05:24:45.713Z,6.10
2019-03-25T05:27:16.654Z,6.10
2019-03-25T05:29:47.453Z,6.00
2019-03-25T05:32:18.254Z,5.90
2019-03-25T05:34:49.093Z,5.70
2019-03-25T05:37:19.902Z,5.70
2019-03-25T05:39:50.702Z,5.60
2019-03-25T05:42:21.489Z,5.60
2019-03-25T05:44:52.357Z,5.50
2019-03-25T05:47:23.148Z,5.60
2019-03-25T05:49:53.930Z,5.60
2019-03-25T05:52:24.742Z,5.60
2019-03-25T05:54:55.609Z,5.60
2019-03-25T05:57:26.554Z,5.70
2019-03-25T05:59:57.337Z,5.60
2019-03-25T06:02:28.134Z,5.60
2019-03-25T06:04:59.165Z,5.60
2019-03-25T06:07:29.957Z,5.60
2019-03-25T06:10:01.463Z,5.60
2019-03-25T06:12:32.336Z,5.60
2019-03-25T06:15:03.274Z,5.60
2019-03-25T06:17:34.282Z,5.70
2019-03-25T06:20:05.366Z,5.80
2019-03-25T06:22:36.229Z,5.80
2019-03-25T06:25:07.627Z,5.90
2019-03-25T06:27:38.638Z,5.90
2019-03-25T06:30:10.803Z,6.00
2019-03-25T06:32:41.666Z,6.00
2019-03-25T06:35:12.642Z,6.10
2019-03-25T06:37:43.497Z,6.20
2019-03-25T06:40:14.452Z,6.30
2019-03-25T06:42:45.330Z,6.40
2019-03-25T06:45:16.322Z,6.40
2019-03-25T06:47:47.317Z,6.50
2019-03-25T06:50:18.261Z,6.50
2019-03-25T06:52:49.112Z,6.40
2019-03-25T06:55:19.910Z,6.60
2019-03-25T06:57:50.793Z,6.60
2019-03-25T07:00:22.014Z,6.60
2019-03-25T07:02:52.898Z,6.70
2019-03-25T07:05:23.694Z,6.70
2019-03-25T07:07:54.558Z,6.60
2019-03-25T07:10:33.314Z,6.60
2019-03-25T07:13:05.839Z,6.70
2019-03-25T07:15:36.629Z,6.70
2019-03-25T07:18:07.636Z,6.80
2019-03-25T07:20:38.546Z,6.80
2019-03-25T07:23:09.498Z,6.80
2019-03-25T07:25:40.294Z,6.80
2019-03-25T07:28:11.106Z,6.80
2019-03-25T07:30:41.993Z,6.80
2019-03-25T07:33:12.774Z,6.90
2019-03-25T07:35:43.754Z,7.10
2019-03-25T07:38:14.614Z,7.30
2019-03-25T07:40:45.486Z,7.70
2019-03-25T07:43:16.326Z,7.80
2019-03-25T07:45:47.186Z,7.70
2019-03-25T07:48:18.062Z,7.80
2019-03-25T07:50:48.882Z,7.70
2019-03-25T07:53:19.666Z,7.60
2019-03-25T07:55:50.463Z,7.50
2019-03-25T07:58:21.293Z,7.40
2019-03-25T08:00:52.102Z,7.40
2019-03-25T08:03:22.870Z,7.40
2019-03-25T08:05:53.769Z,7.30
2019-03-25T08:08:24.659Z,7.30
2019-03-25T08:10:55.534Z,7.30
2019-03-25T08:13:26.447Z,7.40
2019-03-25T08:15:57.366Z,7.40
2019-03-25T08:18:28.278Z,7.50
2019-03-25T08:20:59.051Z,7.40
2019-03-25T08:23:29.850Z,7.50
2019-03-25T08:26:00.741Z,7.50
2019-03-25T08:28:31.614Z,7.60
2019-03-25T08:31:02.470Z,8.00
2019-03-25T08:33:33.259Z,8.20
2019-03-25T08:36:04.382Z,8.00
2019-03-25T08:38:35.197Z,7.90
2019-03-25T08:41:06.128Z,7.90
2019-03-25T08:43:36.945Z,8.20
2019-03-25T08:46:07.800Z,8.50
2019-03-25T08:48:38.599Z,8.50
2019-03-25T08:51:09.463Z,8.50
2019-03-25T08:53:40.348Z,8.70
2019-03-25T08:56:11.203Z,8.80
2019-03-25T08:58:41.979Z,9.00
2019-03-25T09:01:12.788Z,8.70
2019-03-25T09:03:43.568Z,8.40
2019-03-25T09:06:14.367Z,8.20
2019-03-25T09:08:45.160Z,8.10
2019-03-25T09:11:16.034Z,8.30
2019-03-25T09:13:46.812Z,8.60
2019-03-25T09:16:17.774Z,8.70
2019-03-25T09:18:48.569Z,8.90
2019-03-25T09:21:19.603Z,9.10
2019-03-25T09:23:50.588Z,9.20
2019-03-25T09:26:21.548Z,9.20
2019-03-25T09:28:52.468Z,9.40
2019-03-25T09:31:23.329Z,9.50
2019-03-25T09:33:54.257Z,9.40
2019-03-25T09:36:25.369Z,9.40
2019-03-25T09:38:56.165Z,9.50
2019-03-25T09:41:27.057Z,9.60
2019-03-25T09:43:57.903Z,9.40
2019-03-25T09:46:28.876Z,9.10
2019-03-25T09:48:59.744Z,8.70
2019-03-25T09:51:31.731Z,7.70
2019-03-25T09:54:02.621Z,7.00
2019-03-25T09:56:33.451Z,6.90
2019-03-25T09:59:04.464Z,7.00
2019-03-25T10:01:35.251Z,7.20
2019-03-25T10:04:06.281Z,7.40
2019-03-25T10:06:37.508Z,7.60
2019-03-25T10:09:10.512Z,7.80
2019-03-25T10:11:41.305Z,8.20
2019-03-25T10:14:12.112Z,8.40
2019-03-25T10:16:42.896Z,8.60
2019-03-25T10:19:13.712Z,8.80
2019-03-25T10:22:03.524Z,8.90
2019-03-25T10:24:34.328Z,9.20
2019-03-25T10:27:05.279Z,9.40
2019-03-25T10:29:36.104Z,9.40
2019-03-25T10:32:07.057Z,9.60
2019-03-25T10:34:38.011Z,9.80
2019-03-25T10:37:08.885Z,10.00
2019-03-25T10:39:39.719Z,10.30
2019-03-25T10:42:10.516Z,10.30
2019-03-25T10:44:41.320Z,10.40
2019-03-25T10:47:12.256Z,10.90
2019-03-25T10:49:43.151Z,10.70
2019-03-25T10:52:14.034Z,9.90
2019-03-25T10:54:44.975Z,9.20
2019-03-25T10:57:15.918Z,8.90
2019-03-25T10:59:46.711Z,8.80
2019-03-25T11:02:17.648Z,8.90
2019-03-25T11:04:48.508Z,9.00
2019-03-25T11:07:19.381Z,9.20
2019-03-25T11:09:51.293Z,9.30
2019-03-25T11:12:22.080Z,9.40
2019-03-25T11:14:52.860Z,9.60
2019-03-25T11:17:23.779Z,9.90
2019-03-25T11:19:54.640Z,10.00
2019-03-25T11:22:25.434Z,9.70
2019-03-25T11:24:56.316Z,9.70
2019-03-25T11:27:27.572Z,9.80
2019-03-25T11:29:58.468Z,10.00
2019-03-25T11:32:29.296Z,10.10
2019-03-25T11:35:00.122Z,10.30
2019-03-25T11:37:32.396Z,10.20
2019-03-25T11:40:03.324Z,10.20
2019-03-25T11:42:34.299Z,10.30
2019-03-25T11:45:05.368Z,10.50
2019-03-25T11:47:36.312Z,10.60
2019-03-25T11:50:08.384Z,10.50
2019-03-25T11:52:39.180Z,10.50
2019-03-25T11:55:10.255Z,10.30
2019-03-25T11:57:41.052Z,10.20
2019-03-25T12:00:12.284Z,9.50
2019-03-25T12:02:43.156Z,9.40
2019-03-25T12:05:14.092Z,8.70
2019-03-25T12:07:44.884Z,8.60
2019-03-25T12:10:15.933Z,8.60
2019-03-25T12:12:46.728Z,8.50
2019-03-25T12:15:17.677Z,8.50
2019-03-25T12:17:48.480Z,8.30
2019-03-25T12:20:19.432Z,8.20
2019-03-25T12:22:50.226Z,8.30
2019-03-25T12:25:21.032Z,8.30
2019-03-25T12:27:51.916Z,8.40
2019-03-25T12:30:22.893Z,8.60
2019-03-25T12:33:03.653Z,8.80
2019-03-25T12:35:26.372Z,9.20
2019-03-25T12:37:57.320Z,9.60
2019-03-25T12:40:28.201Z,9.50
2019-03-25T12:42:59.068Z,9.50
2019-03-25T12:45:30.221Z,9.70
2019-03-25T12:48:01.412Z,9.90
2019-03-25T12:50:32.375Z,10.20
2019-03-25T12:53:03.376Z,10.40
2019-03-25T12:55:34.172Z,10.60
2019-03-25T12:58:07.436Z,10.50
2019-03-25T13:00:44.527Z,10.60
2019-03-25T13:03:15.384Z,10.70
2019-03-25T13:05:46.264Z,10.80
2019-03-25T13:08:17.133Z,10.90
2019-03-25T13:10:48.160Z,11.10
2019-03-25T13:13:19.093Z,10.90
2019-03-25T13:15:49.972Z,10.90
2019-03-25T13:18:20.789Z,11.00
2019-03-25T13:20:51.577Z,10.80
2019-03-25T13:23:22.460Z,10.80
2019-03-25T13:25:53.249Z,10.80
2019-03-25T13:28:24.100Z,11.00
2019-03-25T13:30:54.937Z,10.90
2019-03-25T13:33:25.777Z,10.90
2019-03-25T13:35:56.632Z,11.00
2019-03-25T13:38:27.544Z,10.90
2019-03-25T13:40:58.341Z,10.90
2019-03-25T13:43:29.228Z,10.60
2019-03-25T13:46:05.498Z,10.40
2019-03-25T13:48:32.625Z,10.20
2019-03-25T13:51:03.561Z,10.10
2019-03-25T13:53:34.369Z,10.10
2019-03-25T13:56:05.277Z,10.40
2019-03-25T13:58:36.057Z,10.60
2019-03-25T14:01:07.092Z,10.80
2019-03-25T14:03:38.033Z,10.70
2019-03-25T14:06:09.017Z,10.40
2019-03-25T14:08:39.853Z,9.60
2019-03-25T14:11:10.637Z,9.00
2019-03-25T14:13:49.043Z,8.70
2019-03-25T14:16:14.013Z,8.60
2019-03-25T14:18:44.877Z,8.60
2019-03-25T14:21:15.786Z,8.70
2019-03-25T14:23:46.622Z,8.80
2019-03-25T14:26:17.438Z,8.80
2019-03-25T14:28:48.225Z,8.90
2019-03-25T14:31:19.057Z,8.90
2019-03-25T14:33:49.853Z,8.90
2019-03-25T14:36:20.657Z,8.90
2019-03-25T14:38:51.449Z,9.00
2019-03-25T14:41:23.234Z,9.10
2019-03-25T14:43:54.169Z,9.30
2019-03-25T14:46:25.145Z,9.50
2019-03-25T14:48:56.021Z,9.60
2019-03-25T14:51:28.053Z,9.60
2019-03-25T14:53:58.873Z,9.50
2019-03-25T14:56:29.774Z,9.20
2019-03-25T14:59:00.589Z,9.20
2019-03-25T15:01:31.553Z,9.20
2019-03-25T15:04:02.450Z,9.30
2019-03-25T15:06:34.200Z,9.10
2019-03-25T15:09:08.338Z,8.80
2019-03-25T15:11:39.337Z,8.60
2019-03-25T15:14:10.260Z,8.50
2019-03-25T15:16:41.054Z,8.40
2019-03-25T15:19:11.961Z,8.30
2019-03-25T15:21:53.845Z,8.30
2019-03-25T15:24:24.853Z,8.40
2019-03-25T15:26:55.653Z,8.30
2019-03-25T15:29:26.501Z,8.30
2019-03-25T15:31:57.381Z,8.20
2019-03-25T15:34:28.303Z,8.10
2019-03-25T15:37:00.146Z,8.10
2019-03-25T15:39:31.105Z,8.20
2019-03-25T15:42:01.897Z,8.30
2019-03-25T15:44:32.677Z,8.50
2019-03-25T15:47:03.627Z,8.70
2019-03-25T15:49:34.423Z,8.80
2019-03-25T15:52:05.305Z,8.80
2019-03-25T15:54:36.192Z,8.80
2019-03-25T15:57:06.979Z,8.80
2019-03-25T15:59:37.862Z,8.90
2019-03-25T16:02:08.812Z,9.00
2019-03-25T16:04:39.630Z,9.00
2019-03-25T16:07:10.566Z,9.00
2019-03-25T16:09:41.373Z,9.00
2019-03-25T16:12:12.265Z,9.20
2019-03-25T16:14:43.148Z,9.30
2019-03-25T16:17:14.097Z,9.40
2019-03-25T16:19:45.002Z,9.40
2019-03-25T16:22:16.030Z,9.20
2019-03-25T16:24:46.826Z,9.10
2019-03-25T16:27:17.746Z,9.00
2019-03-25T16:29:48.549Z,9.00
2019-03-25T16:32:19.444Z,9.00
2019-03-25T16:34:50.497Z,9.00
2019-03-25T16:37:21.294Z,9.00
2019-03-25T16:39:53.197Z,8.90
2019-03-25T16:42:23.999Z,8.90
2019-03-25T16:44:54.794Z,8.90
2019-03-25T16:47:25.654Z,8.80
2019-03-25T16:49:56.553Z,8.70
2019-03-25T16:52:27.413Z,8.70
2019-03-25T16:54:58.226Z,8.70
2019-03-25T16:57:29.045Z,8.60
2019-03-25T16:59:59.842Z,8.60
2019-03-25T17:02:31.446Z,8.60
2019-03-25T17:05:02.241Z,8.50
2019-03-25T17:07:33.030Z,8.50
2019-03-25T17:10:04.353Z,8.50
2019-03-25T17:12:35.145Z,8.50
2019-03-25T17:15:06.234Z,8.40
2019-03-25T17:17:37.228Z,8.40
2019-03-25T17:20:08.221Z,8.40
2019-03-25T17:22:39.141Z,8.40
2019-03-25T17:25:10.325Z,8.40
2019-03-25T17:27:41.370Z,8.30
2019-03-25T17:30:15.511Z,8.30
2019-03-25T17:32:46.317Z,8.30
2019-03-25T17:35:17.174Z,8.30
2019-03-25T17:37:48.003Z,8.30
2019-03-25T17:40:18.932Z,8.20
2019-03-25T17:42:50.155Z,8.20
2019-03-25T17:45:21.285Z,8.20
2019-03-25T17:47:52.225Z,8.20
2019-03-25T17:50:23.090Z,8.10
2019-03-25T17:52:53.951Z,8.10
2019-03-25T17:55:24.841Z,8.20
2019-03-25T17:57:56.075Z,8.20
2019-03-25T18:01:18.083Z,8.20
2019-03-25T18:03:48.868Z,8.20
2019-03-25T18:06:19.750Z,8.10
2019-03-25T18:08:50.618Z,8.20
2019-03-25T18:11:22.906Z,8.10
2019-03-25T18:13:53.974Z,8.10
2019-03-25T18:16:24.765Z,8.10
2019-03-25T18:18:55.554Z,8.00
2019-03-25T18:21:26.366Z,8.00
2019-03-25T18:23:57.320Z,7.90
2019-03-25T18:26:28.102Z,7.80
2019-03-25T18:28:58.937Z,7.80
2019-03-25T18:31:29.803Z,7.70
2019-03-25T18:34:01.244Z,7.70
2019-03-25T18:36:32.106Z,7.70
2019-03-25T18:39:04.514Z,7.60
2019-03-25T18:41:35.717Z,7.60
2019-03-25T18:44:06.670Z,7.60
2019-03-25T18:46:37.563Z,7.60
2019-03-25T18:49:08.530Z,7.60
2019-03-25T18:51:40.508Z,7.60
2019-03-25T18:54:11.285Z,7.60
2019-03-25T18:56:42.252Z,7.60
2019-03-25T18:59:13.218Z,7.60
2019-03-25T19:01:54.004Z,7.60
2019-03-25T19:04:16.818Z,7.60
2019-03-25T19:06:49.077Z,7.60
2019-03-25T19:09:20.104Z,7.60
2019-03-25T19:11:50.920Z,7.60
2019-03-25T19:14:22.712Z,7.60
2019-03-25T19:16:53.523Z,7.60
2019-03-25T19:19:24.309Z,7.60
2019-03-25T19:21:55.093Z,7.70
2019-03-25T19:24:25.898Z,7.60
2019-03-25T19:26:56.957Z,7.60
2019-03-25T19:29:27.775Z,7.60
2019-03-25T19:32:06.587Z,7.70
2019-03-25T19:34:31.220Z,7.60
2019-03-25T19:37:02.001Z,7.60
2019-03-25T19:39:32.837Z,7.60
2019-03-25T19:42:03.729Z,7.60
2019-03-25T19:44:34.870Z,7.60
2019-03-25T19:47:05.831Z,7.60
2019-03-25T19:49:36.724Z,7.60
2019-03-25T19:52:09.449Z,7.60
2019-03-25T19:54:40.269Z,7.60
2019-03-25T19:57:11.165Z,7.60
2019-03-25T19:59:42.061Z,7.60
2019-03-25T20:02:19.051Z,7.50
2019-03-25T20:04:45.590Z,7.50
2019-03-25T20:07:16.493Z,7.50
2019-03-25T20:09:47.342Z,7.50
2019-03-25T20:12:18.158Z,7.50
2019-03-25T20:14:48.952Z,7.50
2019-03-25T20:17:19.744Z,7.40
2019-03-25T20:19:50.646Z,7.40
2019-03-25T20:22:21.553Z,7.50
2019-03-25T20:24:52.430Z,7.50
2019-03-25T20:27:23.259Z,7.40
2019-03-25T20:29:54.129Z,7.40
2019-03-25T20:32:31.538Z,7.40
2019-03-25T20:34:57.426Z,7.40
2019-03-25T20:37:28.304Z,7.30
2019-03-25T20:39:59.264Z,7.30
2019-03-25T20:42:30.037Z,7.30
2019-03-25T20:45:01.467Z,7.20
2019-03-25T20:47:32.349Z,7.30
2019-03-25T20:50:03.314Z,7.30
2019-03-25T20:52:34.252Z,7.30
2019-03-25T20:55:05.446Z,7.30
2019-03-25T20:57:36.462Z,7.20
2019-03-25T21:00:09.664Z,7.20
2019-03-25T21:02:45.350Z,7.20
2019-03-25T21:05:15.042Z,7.20
2019-03-25T21:07:46.099Z,7.20
2019-03-25T21:10:17.108Z,7.10
2019-03-25T21:12:48.033Z,7.10
2019-03-25T21:15:18.843Z,7.10
2019-03-25T21:17:49.642Z,7.10
2019-03-25T21:20:20.514Z,7.10
2019-03-25T21:22:51.314Z,7.10
2019-03-25T21:25:22.261Z,7.10
2019-03-25T21:27:53.137Z,7.10
2019-03-25T21:30:24.067Z,7.10
2019-03-25T21:33:03.602Z,7.10
2019-03-25T21:35:34.539Z,7.10
2019-03-25T21:38:05.589Z,7.10
2019-03-25T21:40:36.658Z,7.10
2019-03-25T21:43:08.760Z,7.10
2019-03-25T21:45:39.606Z,7.10
2019-03-25T21:48:10.574Z,7.10
2019-03-25T21:50:41.395Z,7.10
2019-03-25T21:53:12.508Z,7.10
2019-03-25T21:55:43.841Z,7.10
2019-03-25T21:58:14.741Z,7.10
2019-03-25T22:00:45.666Z,7.20
2019-03-25T22:03:16.671Z,7.20
2019-03-25T22:05:47.471Z,7.20
2019-03-25T22:08:19.232Z,7.20
2019-03-25T22:10:50.024Z,7.20
2019-03-25T22:13:20.818Z,7.20
2019-03-25T22:15:51.602Z,7.20
2019-03-25T22:18:22.473Z,7.10
2019-03-25T22:20:53.272Z,7.10
2019-03-25T22:23:24.054Z,7.10
2019-03-25T22:25:55.007Z,7.00
2019-03-25T22:28:25.863Z,7.10
2019-03-25T22:30:56.654Z,7.10
2019-03-25T22:33:27.455Z,7.10
2019-03-25T22:35:58.254Z,7.10
2019-03-25T22:38:29.042Z,7.20
2019-03-25T22:40:59.978Z,7.20
2019-03-25T22:43:30.823Z,7.10
2019-03-25T22:46:01.616Z,7.10
2019-03-25T22:48:32.522Z,7.10
2019-03-25T22:51:03.304Z,7.10
2019-03-25T22:53:35.064Z,7.10
2019-03-25T22:56:05.895Z,7.10
2019-03-25T22:58:36.702Z,7.10
2019-03-25T23:01:07.643Z,7.10
2019-03-25T23:03:39.678Z,7.10
2019-03-25T23:06:10.630Z,7.10
2019-03-25T23:08:41.423Z,7.10
2019-03-25T23:11:12.295Z,7.10
2019-03-25T23:13:43.086Z,7.20
2019-03-25T23:16:13.975Z,7.10
2019-03-25T23:18:44.765Z,7.10
2019-03-25T23:21:15.567Z,7.10
2019-03-25T23:23:46.438Z,7.10
2019-03-25T23:26:17.298Z,7.00
2019-03-25T23:28:48.086Z,7.00
2019-03-25T23:31:19.068Z,7.10
2019-03-25T23:33:52.577Z,7.10
2019-03-25T23:36:22.431Z,7.00
2019-03-25T23:38:53.227Z,7.00
2019-03-25T23:41:24.175Z,7.00
2019-03-25T23:43:54.958Z,7.10
2019-03-25T23:46:25.761Z,7.00
2019-03-25T23:48:56.555Z,7.00
2019-03-25T23:51:27.402Z,6.90
2019-03-25T23:54:15.048Z,6.90
2019-03-25T23:56:45.871Z,6.90
2019-03-25T23:59:16.668Z,6.90
